createdAt,value
2019-02-17T00:02:29.228Z,26.52
2019-02-17T00:05:00.785Z,20.88
2019-02-17T00:07:33.841Z,27.77
2019-02-17T00:10:05.857Z,24.92
2019-02-17T00:12:37.500Z,22.77
2019-02-17T00:15:09.234Z,28.47
2019-02-17T00:17:41.036Z,25.15
2019-02-17T00:20:12.526Z,22.00
2019-02-17T00:22:44.099Z,26.42
2019-02-17T00:25:15.586Z,29.02
2019-02-17T00:27:47.049Z,29.12
2019-02-17T00:30:18.706Z,24.77
2019-02-17T00:32:50.396Z,24.55
2019-02-17T00:35:21.891Z,29.48
2019-02-17T00:37:53.567Z,25.32
2019-02-17T00:40:25.114Z,29.55
2019-02-17T00:42:56.569Z,27.85
2019-02-17T00:45:28.035Z,28.35
2019-02-17T00:47:59.769Z,25.90
2019-02-17T00:50:31.352Z,24.70
2019-02-17T00:53:03.086Z,25.25
2019-02-17T00:55:34.750Z,28.38
2019-02-17T00:58:06.431Z,24.07
2019-02-17T01:00:37.648Z,30.80
2019-02-17T01:03:09.460Z,24.87
2019-02-17T01:05:40.810Z,26.77
2019-02-17T01:08:12.311Z,29.40
2019-02-17T01:10:44.006Z,25.60
2019-02-17T01:13:15.567Z,29.23
2019-02-17T01:15:47.370Z,28.35
2019-02-17T01:18:19.906Z,23.42
2019-02-17T01:20:51.953Z,27.52
2019-02-17T01:23:23.565Z,33.45
2019-02-17T01:25:55.082Z,27.45
2019-02-17T01:28:26.591Z,27.67
2019-02-17T01:30:58.370Z,25.45
2019-02-17T01:33:29.711Z,24.82
2019-02-17T01:36:01.313Z,30.02
2019-02-17T01:38:33.003Z,23.83
2019-02-17T01:41:04.502Z,22.93
2019-02-17T01:43:35.991Z,29.37
2019-02-17T01:46:07.321Z,28.50
2019-02-17T01:48:38.963Z,25.37
2019-02-17T01:51:10.856Z,27.37
2019-02-17T01:53:42.092Z,26.95
2019-02-17T01:56:13.628Z,29.80
2019-02-17T01:58:45.110Z,28.62
2019-02-17T02:01:17.250Z,27.62
2019-02-17T02:03:48.730Z,31.20
2019-02-17T02:06:20.319Z,27.07
2019-02-17T02:08:52.046Z,30.00
2019-02-17T02:11:23.737Z,29.23
2019-02-17T02:13:55.303Z,27.40
2019-02-17T02:16:26.770Z,30.65
2019-02-17T02:18:58.357Z,28.05
2019-02-17T02:21:29.845Z,29.07
2019-02-17T02:24:01.373Z,29.18
2019-02-17T02:26:32.632Z,34.92
2019-02-17T02:29:04.055Z,30.30
2019-02-17T02:31:35.862Z,28.17
2019-02-17T02:34:07.415Z,31.87
2019-02-17T02:36:39.060Z,27.22
2019-02-17T02:39:10.615Z,28.30
2019-02-17T02:41:42.074Z,29.60
2019-02-17T02:44:13.349Z,30.43
2019-02-17T02:46:44.725Z,30.08
2019-02-17T02:49:16.073Z,28.80
2019-02-17T02:51:47.332Z,33.25
2019-02-17T02:54:18.884Z,30.77
2019-02-17T02:56:50.180Z,31.25
2019-02-17T02:59:21.435Z,33.83
2019-02-17T03:01:52.757Z,33.45
2019-02-17T03:04:23.993Z,33.98
2019-02-17T03:07:00.691Z,33.02
2019-02-17T03:09:32.126Z,32.08
2019-02-17T03:12:03.952Z,37.00
2019-02-17T03:14:35.554Z,34.25
2019-02-17T03:17:07.125Z,32.08
2019-02-17T03:19:38.386Z,31.17
2019-02-17T03:22:10.804Z,32.80
2019-02-17T03:24:42.247Z,36.65
2019-02-17T03:27:13.852Z,34.92
2019-02-17T03:29:45.482Z,35.15
2019-02-17T03:32:17.947Z,33.95
2019-02-17T03:34:49.666Z,38.15
2019-02-17T03:37:21.667Z,33.58
2019-02-17T03:39:53.344Z,34.92
2019-02-17T03:42:25.039Z,33.83
2019-02-17T03:44:56.731Z,29.55
2019-02-17T03:47:28.127Z,33.13
2019-02-17T03:49:59.765Z,33.42
2019-02-17T03:52:31.423Z,35.48
2019-02-17T03:55:03.062Z,37.00
2019-02-17T03:57:34.687Z,33.30
2019-02-17T04:00:16.428Z,39.23
2019-02-17T04:02:39.798Z,38.67
2019-02-17T04:05:11.432Z,39.75
2019-02-17T04:07:43.029Z,40.15
2019-02-17T04:10:15.543Z,38.20
2019-02-17T04:12:47.222Z,41.18
2019-02-17T04:15:18.883Z,38.30
2019-02-17T04:17:50.553Z,35.08
2019-02-17T04:20:22.018Z,37.28
2019-02-17T04:22:53.546Z,38.08
2019-02-17T04:25:25.079Z,38.08
2019-02-17T04:27:56.687Z,38.10
2019-02-17T04:30:29.730Z,41.25
2019-02-17T04:33:01.530Z,37.53
2019-02-17T04:35:33.053Z,40.50
2019-02-17T04:38:04.648Z,42.65
2019-02-17T04:40:36.058Z,44.83
2019-02-17T04:43:07.685Z,40.80
2019-02-17T04:45:39.340Z,49.27
2019-02-17T04:48:11.256Z,45.15
2019-02-17T04:50:42.905Z,44.98
2019-02-17T04:53:14.406Z,49.73
2019-02-17T04:55:45.887Z,44.95
2019-02-17T04:58:17.850Z,48.10
2019-02-17T05:00:50.165Z,53.15
2019-02-17T05:03:21.740Z,55.20
2019-02-17T05:05:53.340Z,53.28
2019-02-17T05:08:24.884Z,59.03
2019-02-17T05:10:56.239Z,54.98
2019-02-17T05:13:27.802Z,52.25
2019-02-17T05:15:59.524Z,53.10
2019-02-17T05:18:30.997Z,53.10
2019-02-17T05:21:02.425Z,56.80
2019-02-17T05:23:33.706Z,54.83
2019-02-17T05:26:05.114Z,53.65
2019-02-17T05:28:36.783Z,51.25
2019-02-17T05:31:08.031Z,50.58
2019-02-17T05:33:39.543Z,56.33
2019-02-17T05:36:11.034Z,54.25
2019-02-17T05:38:42.389Z,48.92
2019-02-17T05:41:13.917Z,52.60
2019-02-17T05:43:45.722Z,52.85
2019-02-17T05:46:17.172Z,47.78
2019-02-17T05:48:50.266Z,44.77
2019-02-17T05:51:21.894Z,43.98
2019-02-17T05:53:53.244Z,54.38
2019-02-17T05:56:24.546Z,46.30
2019-02-17T05:58:55.981Z,47.60
2019-02-17T06:01:27.342Z,51.18
2019-02-17T06:03:58.723Z,49.60
2019-02-17T06:06:30.361Z,56.25
2019-02-17T06:09:01.983Z,48.87
2019-02-17T06:11:35.212Z,55.17
2019-02-17T06:14:06.803Z,50.30
2019-02-17T06:16:38.062Z,46.65
2019-02-17T06:19:09.507Z,47.88
2019-02-17T06:21:41.052Z,45.08
2019-02-17T06:24:12.607Z,41.37
2019-02-17T06:26:44.274Z,46.37
2019-02-17T06:29:16.226Z,45.60
2019-02-17T06:31:47.755Z,46.40
2019-02-17T06:34:19.441Z,47.17
2019-02-17T06:36:50.810Z,53.98
2019-02-17T06:39:23.117Z,59.20
2019-02-17T06:41:54.387Z,62.23
2019-02-17T06:44:25.776Z,68.00
2019-02-17T06:47:00.579Z,66.95
2019-02-17T06:49:32.332Z,82.60
2019-02-17T06:52:03.852Z,88.62
2019-02-17T06:54:35.481Z,90.32
2019-02-17T06:57:25.796Z,88.25
2019-02-17T07:00:31.038Z,79.72
2019-02-17T07:03:02.582Z,74.80
2019-02-17T07:05:46.569Z,64.67
2019-02-17T07:08:18.092Z,61.88
2019-02-17T07:10:49.563Z,57.80
2019-02-17T07:13:20.875Z,68.55
2019-02-17T07:15:52.605Z,72.12
2019-02-17T07:18:24.094Z,71.20
2019-02-17T07:20:55.517Z,69.03
2019-02-17T07:23:27.128Z,67.05
2019-02-17T07:25:58.769Z,68.30
2019-02-17T07:28:30.203Z,63.60
2019-02-17T07:31:01.751Z,67.45
2019-02-17T07:33:33.341Z,66.40
2019-02-17T07:36:05.072Z,67.15
2019-02-17T07:38:36.447Z,64.15
2019-02-17T07:41:08.028Z,65.03
2019-02-17T07:43:39.239Z,59.48
2019-02-17T07:46:10.730Z,61.15
2019-02-17T07:48:42.318Z,59.42
2019-02-17T07:51:13.904Z,61.37
2019-02-17T07:53:45.454Z,54.83
2019-02-17T07:56:17.095Z,52.80
2019-02-17T07:58:48.487Z,48.83
2019-02-17T08:01:19.982Z,52.25
2019-02-17T08:03:51.563Z,51.48
2019-02-17T08:06:23.145Z,49.77
2019-02-17T08:08:54.578Z,49.90
2019-02-17T08:11:26.162Z,49.08
2019-02-17T08:13:57.503Z,50.05
2019-02-17T08:16:28.795Z,41.42
2019-02-17T08:19:00.307Z,43.70
2019-02-17T08:21:31.512Z,41.92
2019-02-17T08:24:02.775Z,44.20
2019-02-17T08:26:34.159Z,40.75
2019-02-17T08:29:05.932Z,40.90
2019-02-17T08:31:37.168Z,40.35
2019-02-17T08:34:08.468Z,42.00
2019-02-17T08:36:39.795Z,36.85
2019-02-17T08:39:11.021Z,34.25
2019-02-17T08:41:42.241Z,36.28
2019-02-17T08:44:13.676Z,33.15
2019-02-17T08:46:45.222Z,34.58
2019-02-17T08:49:16.568Z,35.30
2019-02-17T08:51:48.005Z,33.35
2019-02-17T08:54:19.197Z,32.05
2019-02-17T08:56:50.797Z,33.25
2019-02-17T08:59:22.083Z,31.30
2019-02-17T09:01:53.300Z,34.38
2019-02-17T09:04:24.558Z,33.15
2019-02-17T09:06:56.159Z,32.03
2019-02-17T09:09:28.186Z,31.55
2019-02-17T09:11:59.521Z,32.23
2019-02-17T09:14:31.123Z,34.63
2019-02-17T09:17:02.631Z,32.63
2019-02-17T09:19:34.024Z,32.73
2019-02-17T09:22:05.578Z,31.20
2019-02-17T09:24:37.227Z,32.78
2019-02-17T09:27:08.614Z,32.67
2019-02-17T09:29:40.008Z,33.00
2019-02-17T09:32:16.247Z,33.98
2019-02-17T09:34:44.276Z,34.23
2019-02-17T09:37:15.922Z,32.53
2019-02-17T09:39:47.264Z,30.05
2019-02-17T09:42:18.645Z,29.87
2019-02-17T09:44:49.857Z,32.63
2019-02-17T09:47:21.273Z,30.97
2019-02-17T09:49:52.792Z,34.45
2019-02-17T09:52:24.043Z,30.43
2019-02-17T09:54:55.097Z,30.97
2019-02-17T09:57:26.568Z,30.37
2019-02-17T09:59:57.526Z,33.17
2019-02-17T10:02:28.745Z,30.27
2019-02-17T10:04:59.797Z,28.27
2019-02-17T10:07:30.799Z,31.63
2019-02-17T10:10:01.750Z,29.03
2019-02-17T10:12:32.754Z,25.77
2019-02-17T10:15:03.806Z,28.80
2019-02-17T10:17:34.950Z,33.87
2019-02-17T10:20:06.702Z,35.03
2019-02-17T10:22:37.883Z,34.80
2019-02-17T10:25:09.498Z,30.67
2019-02-17T10:27:40.906Z,29.23
2019-02-17T10:30:14.080Z,27.27
2019-02-17T10:32:45.440Z,27.33
2019-02-17T10:35:17.762Z,28.53
2019-02-17T10:37:50.255Z,26.63
2019-02-17T10:40:21.486Z,26.07
2019-02-17T10:42:52.672Z,26.10
2019-02-17T10:45:24.071Z,24.30
2019-02-17T10:47:55.100Z,26.80
2019-02-17T10:50:26.475Z,26.57
2019-02-17T10:52:58.016Z,42.07
2019-02-17T10:55:29.380Z,29.77
2019-02-17T10:58:00.814Z,29.80
2019-02-17T11:00:31.858Z,23.43
2019-02-17T11:03:08.695Z,59.40
2019-02-17T11:05:39.883Z,21.40
2019-02-17T11:08:10.955Z,21.77
2019-02-17T11:10:42.161Z,49.27
2019-02-17T11:13:13.626Z,26.77
2019-02-17T11:15:44.902Z,22.37
2019-02-17T11:18:16.134Z,23.40
2019-02-17T11:20:47.356Z,24.43
2019-02-17T11:23:18.408Z,22.43
2019-02-17T11:25:49.940Z,23.30
2019-02-17T11:28:21.229Z,23.00
2019-02-17T11:30:52.280Z,18.77
2019-02-17T11:33:23.591Z,18.87
2019-02-17T11:35:55.091Z,19.27
2019-02-17T11:38:26.197Z,20.40
2019-02-17T11:40:57.682Z,18.33
2019-02-17T11:43:28.671Z,17.00
2019-02-17T11:45:59.994Z,24.30
2019-02-17T11:48:31.108Z,17.37
2019-02-17T11:51:02.338Z,17.37
2019-02-17T11:53:33.765Z,19.87
2019-02-17T11:56:05.105Z,17.23
2019-02-17T11:58:36.245Z,18.87
2019-02-17T12:01:07.598Z,16.33
2019-02-17T12:03:39.301Z,16.97
2019-02-17T12:06:10.917Z,16.93
2019-02-17T12:08:48.764Z,19.60
2019-02-17T12:11:20.331Z,16.00
2019-02-17T12:13:51.521Z,15.33
2019-02-17T12:16:23.029Z,19.13
2019-02-17T12:18:54.464Z,15.13
2019-02-17T12:21:47.554Z,15.13
2019-02-17T12:24:21.972Z,16.50
2019-02-17T12:27:03.946Z,14.93
2019-02-17T12:29:38.514Z,16.47
2019-02-17T12:32:10.094Z,16.73
2019-02-17T12:34:41.132Z,11.07
2019-02-17T12:37:12.464Z,13.80
2019-02-17T12:39:43.701Z,15.97
2019-02-17T12:42:14.979Z,13.67
2019-02-17T12:44:46.235Z,11.27
2019-02-17T12:47:17.605Z,11.10
2019-02-17T12:49:48.865Z,12.73
2019-02-17T12:52:20.206Z,14.60
2019-02-17T12:54:51.426Z,10.40
2019-02-17T12:57:22.495Z,9.30
2019-02-17T12:59:53.427Z,10.67
2019-02-17T13:02:24.492Z,11.53
2019-02-17T13:04:55.599Z,15.00
2019-02-17T13:07:26.744Z,12.87
2019-02-17T13:09:58.030Z,12.73
2019-02-17T13:12:29.312Z,12.40
2019-02-17T13:15:00.611Z,13.33
2019-02-17T13:17:32.155Z,9.80
2019-02-17T13:20:03.086Z,11.23
2019-02-17T13:22:34.387Z,9.47
2019-02-17T13:25:05.952Z,8.43
2019-02-17T13:27:37.150Z,8.60
2019-02-17T13:30:14.406Z,12.13
2019-02-17T13:32:45.675Z,17.60
2019-02-17T13:35:17.028Z,10.63
2019-02-17T13:37:48.174Z,21.33
2019-02-17T13:40:19.546Z,10.93
2019-02-17T13:42:50.789Z,10.43
2019-02-17T13:45:21.951Z,13.27
2019-02-17T13:47:53.291Z,11.93
2019-02-17T13:50:24.499Z,13.30
2019-02-17T13:52:55.852Z,12.80
2019-02-17T13:55:27.183Z,14.13
2019-02-17T13:57:58.618Z,11.60
2019-02-17T14:00:30.603Z,12.90
2019-02-17T14:03:04.424Z,11.40
2019-02-17T14:05:35.513Z,31.80
2019-02-17T14:08:07.015Z,13.33
2019-02-17T14:10:38.476Z,13.57
2019-02-17T14:13:09.713Z,12.90
2019-02-17T14:15:40.979Z,12.10
2019-02-17T14:18:11.954Z,12.17
2019-02-17T14:20:43.367Z,18.13
2019-02-17T14:23:14.517Z,11.03
2019-02-17T14:25:45.624Z,12.50
2019-02-17T14:28:16.571Z,9.87
2019-02-17T14:30:47.617Z,12.40
2019-02-17T14:33:18.683Z,9.53
2019-02-17T14:35:49.978Z,19.47
2019-02-17T14:38:21.353Z,12.57
2019-02-17T14:40:52.587Z,10.70
2019-02-17T14:43:24.145Z,11.43
2019-02-17T14:45:55.509Z,30.37
2019-02-17T14:48:26.966Z,11.27
2019-02-17T14:50:58.096Z,10.93
2019-02-17T14:53:29.435Z,11.40
2019-02-17T14:56:00.755Z,12.03
2019-02-17T14:58:32.034Z,10.67
2019-02-17T15:01:03.177Z,13.93
2019-02-17T15:03:35.329Z,12.60
2019-02-17T15:06:06.902Z,13.50
2019-02-17T15:08:38.007Z,15.30
2019-02-17T15:11:09.582Z,15.67
2019-02-17T15:13:40.867Z,15.87
2019-02-17T15:16:11.976Z,14.27
2019-02-17T15:18:43.023Z,19.83
2019-02-17T15:21:14.064Z,24.40
2019-02-17T15:23:45.053Z,14.57
2019-02-17T15:26:16.143Z,19.20
2019-02-17T15:28:50.908Z,14.03
2019-02-17T15:31:20.237Z,24.43
2019-02-17T15:33:51.522Z,15.63
2019-02-17T15:36:22.802Z,20.00
2019-02-17T15:38:54.010Z,14.00
2019-02-17T15:41:25.387Z,15.83
2019-02-17T15:43:56.542Z,14.90
2019-02-17T15:46:27.623Z,18.80
2019-02-17T15:48:58.928Z,13.87
2019-02-17T15:51:30.022Z,16.47
2019-02-17T15:54:01.271Z,15.03
2019-02-17T15:56:32.546Z,17.63
2019-02-17T15:59:03.525Z,14.27
2019-02-17T16:01:34.609Z,14.90
2019-02-17T16:04:05.922Z,12.90
2019-02-17T16:06:36.988Z,18.93
2019-02-17T16:09:09.191Z,14.77
2019-02-17T16:11:40.681Z,16.63
2019-02-17T16:14:11.754Z,16.03
2019-02-17T16:16:43.064Z,24.07
2019-02-17T16:19:14.123Z,16.63
2019-02-17T16:21:45.113Z,20.00
2019-02-17T16:24:16.126Z,23.60
2019-02-17T16:26:47.109Z,18.57
2019-02-17T16:29:18.151Z,20.60
2019-02-17T16:31:49.106Z,19.60
2019-02-17T16:34:20.423Z,33.53
2019-02-17T16:36:51.447Z,23.47
2019-02-17T16:39:22.985Z,25.80
2019-02-17T16:41:53.899Z,21.23
2019-02-17T16:44:25.593Z,22.48
2019-02-17T16:46:57.140Z,23.25
2019-02-17T16:49:28.192Z,22.47
2019-02-17T16:51:59.814Z,23.22
2019-02-17T16:54:31.116Z,23.02
2019-02-17T16:57:02.458Z,23.73
2019-02-17T16:59:33.989Z,23.22
2019-02-17T17:02:05.656Z,28.90
2019-02-17T17:04:37.189Z,30.55
2019-02-17T17:07:08.674Z,28.10
2019-02-17T17:09:39.906Z,38.10
2019-02-17T17:12:11.549Z,29.37
2019-02-17T17:14:43.036Z,28.02
2019-02-17T17:17:14.565Z,32.08
2019-02-17T17:19:46.119Z,36.77
2019-02-17T17:22:17.759Z,38.78
2019-02-17T17:24:49.544Z,32.03
2019-02-17T17:27:20.977Z,31.17
2019-02-17T17:29:52.574Z,33.55
2019-02-17T17:32:24.160Z,31.20
2019-02-17T17:34:58.985Z,32.35
2019-02-17T17:37:28.402Z,27.37
2019-02-17T17:40:00.717Z,25.82
2019-02-17T17:42:32.073Z,31.12
2019-02-17T17:45:03.384Z,32.30
2019-02-17T17:47:35.342Z,31.33
2019-02-17T17:50:07.718Z,30.08
2019-02-17T17:52:39.273Z,27.85
2019-02-17T17:55:10.942Z,31.55
2019-02-17T17:57:42.555Z,28.70
2019-02-17T18:00:16.800Z,25.10
2019-02-17T18:02:48.434Z,26.25
2019-02-17T18:05:20.169Z,27.32
2019-02-17T18:07:51.575Z,26.65
2019-02-17T18:10:22.808Z,24.82
2019-02-17T18:12:54.510Z,27.87
2019-02-17T18:15:26.083Z,25.55
2019-02-17T18:17:57.850Z,23.77
2019-02-17T18:20:29.592Z,25.08
2019-02-17T18:23:01.202Z,23.32
2019-02-17T18:25:32.754Z,27.35
2019-02-17T18:28:04.432Z,23.47
2019-02-17T18:30:35.746Z,23.83
2019-02-17T18:33:07.445Z,27.13
2019-02-17T18:35:39.161Z,24.70
2019-02-17T18:38:10.889Z,28.60
2019-02-17T18:40:45.072Z,23.90
2019-02-17T18:43:15.525Z,25.48
2019-02-17T18:45:47.171Z,26.45
2019-02-17T18:48:18.426Z,24.90
2019-02-17T18:50:58.728Z,26.97
2019-02-17T18:53:22.825Z,25.88
2019-02-17T18:55:54.295Z,28.23
2019-02-17T18:58:26.614Z,27.90
2019-02-17T19:00:57.873Z,27.93
2019-02-17T19:03:29.689Z,30.08
2019-02-17T19:06:01.451Z,30.10
2019-02-17T19:08:32.990Z,28.45
2019-02-17T19:11:04.756Z,27.73
2019-02-17T19:13:36.365Z,24.15
2019-02-17T19:16:07.832Z,25.95
2019-02-17T19:18:40.126Z,27.10
2019-02-17T19:21:11.629Z,30.02
2019-02-17T19:23:43.012Z,32.30
2019-02-17T19:26:14.800Z,30.80
2019-02-17T19:28:46.462Z,28.17
2019-02-17T19:31:18.254Z,25.37
2019-02-17T19:33:49.999Z,24.70
2019-02-17T19:36:21.556Z,29.82
2019-02-17T19:38:53.225Z,30.25
2019-02-17T19:41:24.810Z,31.68
2019-02-17T19:43:56.182Z,26.37
2019-02-17T19:46:27.801Z,27.60
2019-02-17T19:48:59.204Z,30.20
2019-02-17T19:51:30.451Z,32.50
2019-02-17T19:54:02.229Z,34.48
2019-02-17T19:56:33.460Z,34.67
2019-02-17T19:59:04.778Z,33.95
2019-02-17T20:01:36.279Z,46.00
2019-02-17T20:04:17.191Z,35.35
2019-02-17T20:06:49.058Z,30.37
2019-02-17T20:09:20.566Z,27.62
2019-02-17T20:11:52.413Z,30.55
2019-02-17T20:14:23.806Z,28.00
2019-02-17T20:16:55.216Z,28.55
2019-02-17T20:19:26.880Z,23.57
2019-02-17T20:21:58.225Z,26.17
2019-02-17T20:24:29.447Z,27.62
2019-02-17T20:27:00.693Z,28.92
2019-02-17T20:29:32.114Z,27.37
2019-02-17T20:32:03.650Z,26.40
2019-02-17T20:34:35.017Z,21.50
2019-02-17T20:37:06.448Z,29.75
2019-02-17T20:39:38.034Z,24.77
2019-02-17T20:42:09.334Z,22.90
2019-02-17T20:44:40.808Z,20.92
2019-02-17T20:47:12.395Z,21.77
2019-02-17T20:49:43.883Z,26.57
2019-02-17T20:52:15.372Z,44.10
2019-02-17T20:54:46.808Z,39.50
2019-02-17T20:57:19.127Z,25.25
2019-02-17T20:59:50.318Z,27.25
2019-02-17T21:02:21.783Z,26.65
2019-02-17T21:04:53.271Z,25.50
2019-02-17T21:07:24.698Z,25.70
2019-02-17T21:09:56.155Z,25.23
2019-02-17T21:12:27.642Z,23.35
2019-02-17T21:14:59.157Z,21.65
2019-02-17T21:17:30.628Z,20.32
2019-02-17T21:20:02.453Z,23.30
2019-02-17T21:22:34.123Z,22.73
2019-02-17T21:25:06.304Z,23.22
2019-02-17T21:27:37.836Z,24.07
2019-02-17T21:30:09.405Z,22.82
2019-02-17T21:32:41.035Z,22.82
2019-02-17T21:35:13.366Z,22.35
2019-02-17T21:37:44.986Z,24.47
2019-02-17T21:40:16.670Z,24.05
2019-02-17T21:42:48.441Z,33.70
2019-02-17T21:45:19.990Z,24.63
2019-02-17T21:47:51.358Z,22.95
2019-02-17T21:50:22.735Z,22.07
2019-02-17T21:52:54.198Z,22.15
2019-02-17T21:55:25.420Z,23.85
2019-02-17T21:57:56.871Z,22.52
2019-02-17T22:00:28.414Z,27.52
2019-02-17T22:02:59.842Z,34.63
2019-02-17T22:05:31.261Z,29.90
2019-02-17T22:08:02.683Z,28.00
2019-02-17T22:10:34.218Z,22.77
2019-02-17T22:13:05.827Z,21.68
2019-02-17T22:15:37.332Z,28.67
2019-02-17T22:18:08.864Z,30.68
2019-02-17T22:20:40.529Z,31.73
2019-02-17T22:23:12.147Z,23.20
2019-02-17T22:25:43.748Z,24.32
2019-02-17T22:28:15.099Z,23.55
2019-02-17T22:30:46.557Z,27.70
2019-02-17T22:33:18.140Z,24.82
2019-02-17T22:35:49.618Z,34.38
2019-02-17T22:38:21.166Z,29.98
2019-02-17T22:40:52.710Z,26.27
2019-02-17T22:43:24.300Z,27.58
2019-02-17T22:45:55.669Z,30.90
2019-02-17T22:48:27.253Z,26.95
2019-02-17T22:50:58.877Z,27.13
2019-02-17T22:53:30.124Z,26.97
2019-02-17T22:56:01.772Z,35.48
2019-02-17T22:58:33.126Z,35.50
2019-02-17T23:01:07.817Z,35.75
2019-02-17T23:03:40.714Z,38.05
2019-02-17T23:06:12.161Z,36.10
2019-02-17T23:08:43.657Z,46.80
2019-02-17T23:11:14.984Z,47.35
2019-02-17T23:13:46.540Z,40.25
2019-02-17T23:16:18.111Z,42.03
2019-02-17T23:18:49.840Z,42.73
2019-02-17T23:21:21.232Z,40.38
2019-02-17T23:23:52.775Z,38.67
2019-02-17T23:26:24.410Z,39.98
2019-02-17T23:28:55.856Z,39.18
2019-02-17T23:31:27.081Z,41.20
2019-02-17T23:33:58.572Z,42.93
2019-02-17T23:36:30.079Z,39.30
2019-02-17T23:39:01.839Z,37.45
2019-02-17T23:41:34.794Z,39.67
2019-02-17T23:44:06.237Z,34.03
2019-02-17T23:46:37.773Z,34.33
2019-02-17T23:49:09.437Z,32.03
2019-02-17T23:51:40.962Z,34.08
2019-02-17T23:54:12.293Z,36.88
2019-02-17T23:56:43.873Z,31.65
2019-02-17T23:59:16.370Z,31.55
